sensor_id;sensor_type;location;lat;lon;timestamp;P1;durP1;ratioP1;P2;durP2;ratioP2
17618;SDS011;8928;51.678;6.074;2023-11-21T00:01:51;30.63;;;13.50;;
17618;SDS011;8928;51.678;6.074;2023-11-21T00:04:38;29.03;;;13.43;;
17618;SDS011;8928;51.678;6.074;2023-11-21T00:07:25;27.47;;;13.40;;
17618;SDS011;8928;51.678;6.074;2023-11-21T00:10:12;31.70;;;13.43;;
17618;SDS011;8928;51.678;6.074;2023-11-21T00:13:01;35.77;;;13.90;;
17618;SDS011;8928;51.678;6.074;2023-11-21T00:15:49;34.03;;;14.10;;
17618;SDS011;8928;51.678;6.074;2023-11-21T00:18:36;38.80;;;15.07;;
17618;SDS011;8928;51.678;6.074;2023-11-21T00:21:23;34.10;;;14.60;;
17618;SDS011;8928;51.678;6.074;2023-11-21T00:24:11;33.93;;;14.57;;
17618;SDS011;8928;51.678;6.074;2023-11-21T00:26:59;40.77;;;15.67;;
17618;SDS011;8928;51.678;6.074;2023-11-21T00:29:46;45.20;;;16.37;;
17618;SDS011;8928;51.678;6.074;2023-11-21T00:32:34;37.23;;;15.67;;
17618;SDS011;8928;51.678;6.074;2023-11-21T00:35:22;37.20;;;16.27;;
17618;SDS011;8928;51.678;6.074;2023-11-21T00:38:09;46.57;;;16.97;;
17618;SDS011;8928;51.678;6.074;2023-11-21T00:40:56;45.87;;;17.10;;
17618;SDS011;8928;51.678;6.074;2023-11-21T00:43:43;45.80;;;17.80;;
17618;SDS011;8928;51.678;6.074;2023-11-21T00:46:30;43.87;;;17.10;;
17618;SDS011;8928;51.678;6.074;2023-11-21T00:49:19;43.83;;;16.97;;
17618;SDS011;8928;51.678;6.074;2023-11-21T00:52:06;43.10;;;17.53;;
17618;SDS011;8928;51.678;6.074;2023-11-21T00:54:53;45.47;;;16.67;;
17618;SDS011;8928;51.678;6.074;2023-11-21T00:57:40;41.80;;;16.57;;
17618;SDS011;8928;51.678;6.074;2023-11-21T01:00:27;49.03;;;18.03;;
17618;SDS011;8928;51.678;6.074;2023-11-21T01:03:15;54.07;;;18.30;;
17618;SDS011;8928;51.678;6.074;2023-11-21T01:06:03;46.10;;;17.37;;
17618;SDS011;8928;51.678;6.074;2023-11-21T01:08:52;44.47;;;16.17;;
17618;SDS011;8928;51.678;6.074;2023-11-21T01:11:39;49.60;;;17.70;;
17618;SDS011;8928;51.678;6.074;2023-11-21T01:14:26;44.43;;;17.13;;
17618;SDS011;8928;51.678;6.074;2023-11-21T01:17:13;58.10;;;17.80;;
17618;SDS011;8928;51.678;6.074;2023-11-21T01:20:00;58.87;;;18.67;;
17618;SDS011;8928;51.678;6.074;2023-11-21T01:22:52;49.97;;;18.93;;
17618;SDS011;8928;51.678;6.074;2023-11-21T01:25:40;59.60;;;19.23;;
17618;SDS011;8928;51.678;6.074;2023-11-21T01:28:27;63.17;;;20.43;;
17618;SDS011;8928;51.678;6.074;2023-11-21T01:31:14;65.53;;;20.30;;
17618;SDS011;8928;51.678;6.074;2023-11-21T01:34:02;63.37;;;20.47;;
17618;SDS011;8928;51.678;6.074;2023-11-21T01:36:50;66.37;;;21.17;;
17618;SDS011;8928;51.678;6.074;2023-11-21T01:39:38;68.60;;;21.07;;
17618;SDS011;8928;51.678;6.074;2023-11-21T01:42:25;66.13;;;21.17;;
17618;SDS011;8928;51.678;6.074;2023-11-21T01:45:12;74.10;;;21.70;;
17618;SDS011;8928;51.678;6.074;2023-11-21T01:47:59;69.83;;;21.17;;
17618;SDS011;8928;51.678;6.074;2023-11-21T01:50:47;70.20;;;22.43;;
17618;SDS011;8928;51.678;6.074;2023-11-21T01:53:35;60.13;;;20.83;;
17618;SDS011;8928;51.678;6.074;2023-11-21T01:56:23;87.83;;;23.70;;
17618;SDS011;8928;51.678;6.074;2023-11-21T01:59:11;90.77;;;24.17;;
17618;SDS011;8928;51.678;6.074;2023-11-21T02:02:00;83.30;;;24.00;;
17618;SDS011;8928;51.678;6.074;2023-11-21T02:04:48;91.03;;;24.70;;
17618;SDS011;8928;51.678;6.074;2023-11-21T02:07:34;79.17;;;22.53;;
17618;SDS011;8928;51.678;6.074;2023-11-21T02:10:23;71.87;;;21.50;;
17618;SDS011;8928;51.678;6.074;2023-11-21T02:13:11;74.97;;;21.97;;
17618;SDS011;8928;51.678;6.074;2023-11-21T02:15:58;70.83;;;22.07;;
17618;SDS011;8928;51.678;6.074;2023-11-21T02:18:45;68.63;;;21.63;;
17618;SDS011;8928;51.678;6.074;2023-11-21T02:21:33;83.33;;;23.13;;
17618;SDS011;8928;51.678;6.074;2023-11-21T02:24:23;78.53;;;22.70;;
17618;SDS011;8928;51.678;6.074;2023-11-21T02:27:10;104.97;;;25.77;;
17618;SDS011;8928;51.678;6.074;2023-11-21T02:29:58;93.23;;;26.07;;
17618;SDS011;8928;51.678;6.074;2023-11-21T02:32:46;126.70;;;27.63;;
17618;SDS011;8928;51.678;6.074;2023-11-21T02:35:33;127.70;;;29.17;;
17618;SDS011;8928;51.678;6.074;2023-11-21T02:38:21;163.57;;;30.37;;
17618;SDS011;8928;51.678;6.074;2023-11-21T02:41:09;122.80;;;29.50;;
17618;SDS011;8928;51.678;6.074;2023-11-21T02:43:56;136.40;;;31.10;;
17618;SDS011;8928;51.678;6.074;2023-11-21T02:46:43;126.50;;;28.77;;
17618;SDS011;8928;51.678;6.074;2023-11-21T02:49:30;167.10;;;31.53;;
17618;SDS011;8928;51.678;6.074;2023-11-21T02:52:20;156.03;;;31.00;;
17618;SDS011;8928;51.678;6.074;2023-11-21T02:55:07;162.27;;;31.80;;
17618;SDS011;8928;51.678;6.074;2023-11-21T02:57:56;169.23;;;30.20;;
17618;SDS011;8928;51.678;6.074;2023-11-21T03:00:43;140.43;;;29.67;;
17618;SDS011;8928;51.678;6.074;2023-11-21T03:03:30;133.67;;;28.80;;
17618;SDS011;8928;51.678;6.074;2023-11-21T03:06:17;127.50;;;29.17;;
17618;SDS011;8928;51.678;6.074;2023-11-21T03:09:04;204.13;;;32.27;;
17618;SDS011;8928;51.678;6.074;2023-11-21T03:11:52;179.97;;;30.83;;
17618;SDS011;8928;51.678;6.074;2023-11-21T03:14:40;151.40;;;29.80;;
17618;SDS011;8928;51.678;6.074;2023-11-21T03:17:27;134.80;;;29.50;;
17618;SDS011;8928;51.678;6.074;2023-11-21T03:20:15;136.37;;;29.17;;
17618;SDS011;8928;51.678;6.074;2023-11-21T03:23:02;174.73;;;29.07;;
17618;SDS011;8928;51.678;6.074;2023-11-21T03:25:50;118.43;;;28.57;;
17618;SDS011;8928;51.678;6.074;2023-11-21T03:28:37;115.63;;;27.87;;
17618;SDS011;8928;51.678;6.074;2023-11-21T03:31:25;178.80;;;28.13;;
17618;SDS011;8928;51.678;6.074;2023-11-21T03:34:15;118.87;;;28.37;;
17618;SDS011;8928;51.678;6.074;2023-11-21T03:37:06;114.87;;;27.20;;
17618;SDS011;8928;51.678;6.074;2023-11-21T03:39:53;269.83;;;30.87;;
17618;SDS011;8928;51.678;6.074;2023-11-21T03:42:41;213.93;;;30.03;;
17618;SDS011;8928;51.678;6.074;2023-11-21T03:45:28;180.50;;;29.63;;
17618;SDS011;8928;51.678;6.074;2023-11-21T03:48:16;123.17;;;27.50;;
17618;SDS011;8928;51.678;6.074;2023-11-21T03:51:04;162.60;;;29.83;;
17618;SDS011;8928;51.678;6.074;2023-11-21T03:53:51;184.20;;;31.00;;
17618;SDS011;8928;51.678;6.074;2023-11-21T03:56:39;180.57;;;30.40;;
17618;SDS011;8928;51.678;6.074;2023-11-21T03:59:26;96.63;;;28.50;;
17618;SDS011;8928;51.678;6.074;2023-11-21T04:02:13;170.03;;;29.47;;
17618;SDS011;8928;51.678;6.074;2023-11-21T04:05:01;215.80;;;29.90;;
17618;SDS011;8928;51.678;6.074;2023-11-21T04:07:48;124.70;;;28.43;;
17618;SDS011;8928;51.678;6.074;2023-11-21T04:10:36;200.37;;;30.63;;
17618;SDS011;8928;51.678;6.074;2023-11-21T04:13:24;171.27;;;29.03;;
17618;SDS011;8928;51.678;6.074;2023-11-21T04:16:12;156.77;;;29.30;;
17618;SDS011;8928;51.678;6.074;2023-11-21T04:18:59;139.97;;;27.93;;
17618;SDS011;8928;51.678;6.074;2023-11-21T04:21:47;111.37;;;27.30;;
17618;SDS011;8928;51.678;6.074;2023-11-21T04:24:34;109.10;;;27.13;;
17618;SDS011;8928;51.678;6.074;2023-11-21T04:27:21;137.20;;;27.70;;
17618;SDS011;8928;51.678;6.074;2023-11-21T04:30:09;167.50;;;27.30;;
17618;SDS011;8928;51.678;6.074;2023-11-21T04:32:57;98.17;;;27.10;;
17618;SDS011;8928;51.678;6.074;2023-11-21T04:35:44;199.10;;;31.23;;
17618;SDS011;8928;51.678;6.074;2023-11-21T04:38:32;177.27;;;27.83;;
17618;SDS011;8928;51.678;6.074;2023-11-21T04:41:19;108.67;;;27.47;;
17618;SDS011;8928;51.678;6.074;2023-11-21T04:44:07;116.13;;;27.80;;
17618;SDS011;8928;51.678;6.074;2023-11-21T04:46:54;113.30;;;26.50;;
17618;SDS011;8928;51.678;6.074;2023-11-21T04:49:41;148.57;;;29.07;;
17618;SDS011;8928;51.678;6.074;2023-11-21T04:52:28;97.13;;;26.63;;
17618;SDS011;8928;51.678;6.074;2023-11-21T04:55:17;127.13;;;27.53;;
17618;SDS011;8928;51.678;6.074;2023-11-21T04:58:04;121.67;;;26.90;;
17618;SDS011;8928;51.678;6.074;2023-11-21T05:00:52;98.53;;;27.13;;
17618;SDS011;8928;51.678;6.074;2023-11-21T05:03:39;136.90;;;27.50;;
17618;SDS011;8928;51.678;6.074;2023-11-21T05:06:26;166.10;;;28.97;;
17618;SDS011;8928;51.678;6.074;2023-11-21T05:09:13;133.07;;;26.87;;
17618;SDS011;8928;51.678;6.074;2023-11-21T05:12:02;95.53;;;26.17;;
17618;SDS011;8928;51.678;6.074;2023-11-21T05:14:50;87.90;;;26.20;;
17618;SDS011;8928;51.678;6.074;2023-11-21T05:17:37;112.93;;;27.60;;
17618;SDS011;8928;51.678;6.074;2023-11-21T05:20:27;111.43;;;26.77;;
17618;SDS011;8928;51.678;6.074;2023-11-21T05:23:14;85.50;;;25.93;;
17618;SDS011;8928;51.678;6.074;2023-11-21T05:26:01;98.07;;;26.20;;
17618;SDS011;8928;51.678;6.074;2023-11-21T05:28:50;129.43;;;27.50;;
17618;SDS011;8928;51.678;6.074;2023-11-21T05:31:37;114.33;;;27.57;;
17618;SDS011;8928;51.678;6.074;2023-11-21T05:34:24;112.17;;;27.27;;
17618;SDS011;8928;51.678;6.074;2023-11-21T05:37:11;109.07;;;26.90;;
17618;SDS011;8928;51.678;6.074;2023-11-21T05:39:58;78.30;;;24.97;;
17618;SDS011;8928;51.678;6.074;2023-11-21T05:42:51;87.57;;;25.77;;
17618;SDS011;8928;51.678;6.074;2023-11-21T05:45:39;102.73;;;27.20;;
17618;SDS011;8928;51.678;6.074;2023-11-21T05:48:26;89.97;;;26.47;;
17618;SDS011;8928;51.678;6.074;2023-11-21T05:51:13;103.23;;;27.53;;
17618;SDS011;8928;51.678;6.074;2023-11-21T05:54:00;98.57;;;27.17;;
17618;SDS011;8928;51.678;6.074;2023-11-21T05:56:47;104.37;;;27.07;;
17618;SDS011;8928;51.678;6.074;2023-11-21T05:59:34;99.30;;;26.93;;
17618;SDS011;8928;51.678;6.074;2023-11-21T06:02:23;122.90;;;27.10;;
17618;SDS011;8928;51.678;6.074;2023-11-21T06:05:11;96.77;;;26.73;;
17618;SDS011;8928;51.678;6.074;2023-11-21T06:07:58;73.47;;;24.73;;
17618;SDS011;8928;51.678;6.074;2023-11-21T06:10:46;87.60;;;26.57;;
17618;SDS011;8928;51.678;6.074;2023-11-21T06:13:34;81.40;;;25.37;;
17618;SDS011;8928;51.678;6.074;2023-11-21T06:16:21;78.90;;;25.13;;
17618;SDS011;8928;51.678;6.074;2023-11-21T06:19:10;79.73;;;26.17;;
17618;SDS011;8928;51.678;6.074;2023-11-21T06:21:57;74.70;;;25.50;;
17618;SDS011;8928;51.678;6.074;2023-11-21T06:24:44;83.80;;;26.10;;
17618;SDS011;8928;51.678;6.074;2023-11-21T06:27:32;78.93;;;25.67;;
17618;SDS011;8928;51.678;6.074;2023-11-21T06:30:19;79.33;;;26.93;;
17618;SDS011;8928;51.678;6.074;2023-11-21T06:33:07;74.37;;;25.47;;
17618;SDS011;8928;51.678;6.074;2023-11-21T06:35:55;74.87;;;25.60;;
17618;SDS011;8928;51.678;6.074;2023-11-21T06:38:42;75.47;;;24.83;;
17618;SDS011;8928;51.678;6.074;2023-11-21T06:41:31;72.93;;;24.70;;
17618;SDS011;8928;51.678;6.074;2023-11-21T06:44:18;74.27;;;24.77;;
17618;SDS011;8928;51.678;6.074;2023-11-21T06:47:05;90.83;;;26.60;;
17618;SDS011;8928;51.678;6.074;2023-11-21T06:49:52;84.70;;;27.40;;
17618;SDS011;8928;51.678;6.074;2023-11-21T06:52:41;98.27;;;26.67;;
17618;SDS011;8928;51.678;6.074;2023-11-21T06:55:28;85.37;;;26.30;;
17618;SDS011;8928;51.678;6.074;2023-11-21T06:58:16;92.97;;;27.23;;
17618;SDS011;8928;51.678;6.074;2023-11-21T07:01:03;92.33;;;26.53;;
17618;SDS011;8928;51.678;6.074;2023-11-21T07:03:52;91.20;;;27.43;;
17618;SDS011;8928;51.678;6.074;2023-11-21T07:06:39;92.13;;;27.23;;
17618;SDS011;8928;51.678;6.074;2023-11-21T07:09:28;83.43;;;27.00;;
17618;SDS011;8928;51.678;6.074;2023-11-21T07:12:16;108.23;;;27.53;;
17618;SDS011;8928;51.678;6.074;2023-11-21T07:15:03;79.47;;;26.30;;
17618;SDS011;8928;51.678;6.074;2023-11-21T07:17:54;78.30;;;26.23;;
17618;SDS011;8928;51.678;6.074;2023-11-21T07:20:41;81.37;;;26.93;;
17618;SDS011;8928;51.678;6.074;2023-11-21T07:29:07;73.17;;;26.40;;
17618;SDS011;8928;51.678;6.074;2023-11-21T07:37:11;80.87;;;26.80;;
17618;SDS011;8928;51.678;6.074;2023-11-21T07:39:58;74.70;;;26.63;;
17618;SDS011;8928;51.678;6.074;2023-11-21T08:16:27;66.83;;;25.77;;
17618;SDS011;8928;51.678;6.074;2023-11-21T08:19:14;62.50;;;24.53;;
17618;SDS011;8928;51.678;6.074;2023-11-21T08:22:02;68.60;;;25.00;;
17618;SDS011;8928;51.678;6.074;2023-11-21T08:24:49;59.27;;;24.43;;
17618;SDS011;8928;51.678;6.074;2023-11-21T08:27:36;59.37;;;24.70;;
17618;SDS011;8928;51.678;6.074;2023-11-21T08:30:24;54.93;;;23.67;;
17618;SDS011;8928;51.678;6.074;2023-11-21T08:33:14;58.17;;;23.37;;
17618;SDS011;8928;51.678;6.074;2023-11-21T08:36:06;60.20;;;24.40;;
17618;SDS011;8928;51.678;6.074;2023-11-21T08:38:53;62.40;;;24.57;;
17618;SDS011;8928;51.678;6.074;2023-11-21T08:41:40;60.73;;;24.20;;
17618;SDS011;8928;51.678;6.074;2023-11-21T08:44:27;52.07;;;22.93;;
17618;SDS011;8928;51.678;6.074;2023-11-21T08:47:15;65.37;;;25.93;;
17618;SDS011;8928;51.678;6.074;2023-11-21T08:50:04;62.83;;;25.67;;
17618;SDS011;8928;51.678;6.074;2023-11-21T08:52:53;62.57;;;25.70;;
17618;SDS011;8928;51.678;6.074;2023-11-21T08:55:40;59.63;;;23.90;;
17618;SDS011;8928;51.678;6.074;2023-11-21T08:58:27;58.87;;;23.93;;
17618;SDS011;8928;51.678;6.074;2023-11-21T09:06:26;59.60;;;23.70;;
17618;SDS011;8928;51.678;6.074;2023-11-21T09:09:13;51.73;;;24.03;;
17618;SDS011;8928;51.678;6.074;2023-11-21T09:14:35;51.87;;;23.80;;
17618;SDS011;8928;51.678;6.074;2023-11-21T09:17:22;54.43;;;23.47;;
17618;SDS011;8928;51.678;6.074;2023-11-21T09:20:10;54.27;;;23.40;;
17618;SDS011;8928;51.678;6.074;2023-11-21T09:22:58;52.33;;;24.33;;
17618;SDS011;8928;51.678;6.074;2023-11-21T09:25:45;48.07;;;23.33;;
17618;SDS011;8928;51.678;6.074;2023-11-21T09:28:35;47.67;;;22.00;;
17618;SDS011;8928;51.678;6.074;2023-11-21T09:34:13;43.80;;;21.50;;
17618;SDS011;8928;51.678;6.074;2023-11-21T09:37:00;43.60;;;20.47;;
17618;SDS011;8928;51.678;6.074;2023-11-21T09:39:53;41.60;;;20.60;;
17618;SDS011;8928;51.678;6.074;2023-11-21T09:42:41;39.43;;;20.57;;
17618;SDS011;8928;51.678;6.074;2023-11-21T09:45:34;37.33;;;19.47;;
17618;SDS011;8928;51.678;6.074;2023-11-21T09:48:22;40.23;;;19.60;;
17618;SDS011;8928;51.678;6.074;2023-11-21T09:51:12;37.67;;;19.73;;
17618;SDS011;8928;51.678;6.074;2023-11-21T09:53:59;34.97;;;19.20;;
17618;SDS011;8928;51.678;6.074;2023-11-21T09:56:53;36.63;;;18.27;;
17618;SDS011;8928;51.678;6.074;2023-11-21T09:59:40;36.10;;;17.70;;
17618;SDS011;8928;51.678;6.074;2023-11-21T10:02:27;36.53;;;18.30;;
17618;SDS011;8928;51.678;6.074;2023-11-21T10:05:16;34.73;;;18.13;;
17618;SDS011;8928;51.678;6.074;2023-11-21T10:08:06;37.77;;;18.27;;
17618;SDS011;8928;51.678;6.074;2023-11-21T10:10:55;31.97;;;17.27;;
17618;SDS011;8928;51.678;6.074;2023-11-21T10:13:44;37.53;;;18.77;;
17618;SDS011;8928;51.678;6.074;2023-11-21T10:16:32;42.80;;;19.43;;
17618;SDS011;8928;51.678;6.074;2023-11-21T10:19:20;40.13;;;19.63;;
17618;SDS011;8928;51.678;6.074;2023-11-21T10:22:09;41.13;;;19.73;;
17618;SDS011;8928;51.678;6.074;2023-11-21T10:24:56;41.80;;;19.13;;
17618;SDS011;8928;51.678;6.074;2023-11-21T10:27:43;39.37;;;19.57;;
17618;SDS011;8928;51.678;6.074;2023-11-21T10:30:37;39.70;;;19.83;;
17618;SDS011;8928;51.678;6.074;2023-11-21T10:33:28;39.50;;;19.20;;
17618;SDS011;8928;51.678;6.074;2023-11-21T10:36:19;40.97;;;19.30;;
17618;SDS011;8928;51.678;6.074;2023-11-21T10:39:14;39.20;;;18.33;;
17618;SDS011;8928;51.678;6.074;2023-11-21T10:42:04;38.83;;;17.80;;
17618;SDS011;8928;51.678;6.074;2023-11-21T10:44:54;36.77;;;17.33;;
17618;SDS011;8928;51.678;6.074;2023-11-21T10:47:43;40.90;;;17.23;;
17618;SDS011;8928;51.678;6.074;2023-11-21T10:50:32;39.93;;;18.00;;
17618;SDS011;8928;51.678;6.074;2023-11-21T10:53:19;37.87;;;18.00;;
17618;SDS011;8928;51.678;6.074;2023-11-21T10:56:08;38.30;;;17.63;;
17618;SDS011;8928;51.678;6.074;2023-11-21T10:58:57;39.50;;;18.77;;
17618;SDS011;8928;51.678;6.074;2023-11-21T11:06:56;42.10;;;19.30;;
17618;SDS011;8928;51.678;6.074;2023-11-21T11:09:48;40.67;;;19.00;;
17618;SDS011;8928;51.678;6.074;2023-11-21T11:17:49;37.30;;;18.50;;
17618;SDS011;8928;51.678;6.074;2023-11-21T11:20:37;39.97;;;18.40;;
17618;SDS011;8928;51.678;6.074;2023-11-21T11:33:39;39.07;;;17.30;;
17618;SDS011;8928;51.678;6.074;2023-11-21T11:36:31;38.57;;;17.50;;
17618;SDS011;8928;51.678;6.074;2023-11-21T11:39:29;33.37;;;16.17;;
17618;SDS011;8928;51.678;6.074;2023-11-21T11:55:15;30.70;;;15.17;;
17618;SDS011;8928;51.678;6.074;2023-11-21T11:58:05;34.40;;;15.70;;
17618;SDS011;8928;51.678;6.074;2023-11-21T12:00:53;31.07;;;15.73;;
17618;SDS011;8928;51.678;6.074;2023-11-21T12:03:40;33.50;;;15.17;;
17618;SDS011;8928;51.678;6.074;2023-11-21T12:06:32;29.57;;;14.87;;
17618;SDS011;8928;51.678;6.074;2023-11-21T12:09:20;34.23;;;15.47;;
17618;SDS011;8928;51.678;6.074;2023-11-21T12:14:45;31.33;;;15.53;;
17618;SDS011;8928;51.678;6.074;2023-11-21T12:17:32;37.60;;;15.60;;
17618;SDS011;8928;51.678;6.074;2023-11-21T12:20:20;36.37;;;16.70;;
17618;SDS011;8928;51.678;6.074;2023-11-21T12:23:08;32.70;;;16.10;;
17618;SDS011;8928;51.678;6.074;2023-11-21T12:25:56;37.53;;;17.03;;
17618;SDS011;8928;51.678;6.074;2023-11-21T12:28:43;38.87;;;16.70;;
17618;SDS011;8928;51.678;6.074;2023-11-21T12:31:41;38.87;;;16.70;;
17618;SDS011;8928;51.678;6.074;2023-11-21T12:34:28;35.47;;;16.00;;
17618;SDS011;8928;51.678;6.074;2023-11-21T12:37:16;35.30;;;15.13;;
17618;SDS011;8928;51.678;6.074;2023-11-21T12:40:04;35.40;;;15.40;;
17618;SDS011;8928;51.678;6.074;2023-11-21T12:42:53;36.60;;;14.80;;
17618;SDS011;8928;51.678;6.074;2023-11-21T12:45:42;40.23;;;16.73;;
17618;SDS011;8928;51.678;6.074;2023-11-21T12:48:31;40.70;;;16.97;;
17618;SDS011;8928;51.678;6.074;2023-11-21T12:53:53;36.87;;;16.43;;
17618;SDS011;8928;51.678;6.074;2023-11-21T12:56:41;37.87;;;17.20;;
17618;SDS011;8928;51.678;6.074;2023-11-21T12:59:33;39.30;;;16.53;;
17618;SDS011;8928;51.678;6.074;2023-11-21T13:07:41;44.43;;;19.30;;
17618;SDS011;8928;51.678;6.074;2023-11-21T13:10:32;43.90;;;20.00;;
17618;SDS011;8928;51.678;6.074;2023-11-21T13:13:21;39.70;;;17.70;;
17618;SDS011;8928;51.678;6.074;2023-11-21T13:16:10;40.23;;;16.73;;
17618;SDS011;8928;51.678;6.074;2023-11-21T13:18:58;38.33;;;18.27;;
17618;SDS011;8928;51.678;6.074;2023-11-21T13:21:45;40.73;;;18.57;;
17618;SDS011;8928;51.678;6.074;2023-11-21T13:24:36;35.67;;;16.60;;
17618;SDS011;8928;51.678;6.074;2023-11-21T13:27:23;35.33;;;16.20;;
17618;SDS011;8928;51.678;6.074;2023-11-21T13:30:11;35.20;;;15.13;;
17618;SDS011;8928;51.678;6.074;2023-11-21T13:33:02;27.77;;;13.57;;
17618;SDS011;8928;51.678;6.074;2023-11-21T13:35:51;25.13;;;11.77;;
17618;SDS011;8928;51.678;6.074;2023-11-21T13:38:38;24.57;;;11.90;;
17618;SDS011;8928;51.678;6.074;2023-11-21T13:41:29;26.13;;;12.27;;
17618;SDS011;8928;51.678;6.074;2023-11-21T13:44:16;25.97;;;12.43;;
17618;SDS011;8928;51.678;6.074;2023-11-21T13:47:11;25.90;;;12.20;;
17618;SDS011;8928;51.678;6.074;2023-11-21T13:49:58;25.97;;;11.73;;
17618;SDS011;8928;51.678;6.074;2023-11-21T13:52:46;23.60;;;11.80;;
17618;SDS011;8928;51.678;6.074;2023-11-21T13:55:33;27.77;;;11.77;;
17618;SDS011;8928;51.678;6.074;2023-11-21T13:58:22;28.90;;;12.97;;
17618;SDS011;8928;51.678;6.074;2023-11-21T14:01:20;32.27;;;14.30;;
17618;SDS011;8928;51.678;6.074;2023-11-21T14:04:38;37.33;;;16.57;;
17618;SDS011;8928;51.678;6.074;2023-11-21T14:07:39;33.90;;;15.40;;
17618;SDS011;8928;51.678;6.074;2023-11-21T14:10:33;35.17;;;15.50;;
17618;SDS011;8928;51.678;6.074;2023-11-21T14:13:13;38.73;;;16.23;;
17618;SDS011;8928;51.678;6.074;2023-11-21T14:16:03;37.67;;;16.73;;
17618;SDS011;8928;51.678;6.074;2023-11-21T14:18:52;40.03;;;17.50;;
17618;SDS011;8928;51.678;6.074;2023-11-21T14:26:57;47.67;;;18.13;;
17618;SDS011;8928;51.678;6.074;2023-11-21T14:29:44;42.00;;;18.00;;
17618;SDS011;8928;51.678;6.074;2023-11-21T14:32:33;42.00;;;17.07;;
17618;SDS011;8928;51.678;6.074;2023-11-21T14:35:23;39.47;;;17.17;;
17618;SDS011;8928;51.678;6.074;2023-11-21T14:38:12;42.87;;;17.57;;
17618;SDS011;8928;51.678;6.074;2023-11-21T14:43:35;41.90;;;16.77;;
17618;SDS011;8928;51.678;6.074;2023-11-21T14:46:23;44.83;;;16.83;;
17618;SDS011;8928;51.678;6.074;2023-11-21T14:49:12;44.40;;;16.20;;
17618;SDS011;8928;51.678;6.074;2023-11-21T14:54:39;43.10;;;16.67;;
17618;SDS011;8928;51.678;6.074;2023-11-21T14:57:31;44.57;;;17.17;;
17618;SDS011;8928;51.678;6.074;2023-11-21T15:00:17;44.40;;;16.07;;
17618;SDS011;8928;51.678;6.074;2023-11-21T15:05:50;45.03;;;16.10;;
17618;SDS011;8928;51.678;6.074;2023-11-21T15:08:37;41.30;;;16.33;;
17618;SDS011;8928;51.678;6.074;2023-11-21T15:13:58;44.63;;;15.93;;
17618;SDS011;8928;51.678;6.074;2023-11-21T15:16:46;43.47;;;15.30;;
17618;SDS011;8928;51.678;6.074;2023-11-21T15:19:37;41.43;;;14.40;;
17618;SDS011;8928;51.678;6.074;2023-11-21T15:22:25;35.13;;;12.53;;
17618;SDS011;8928;51.678;6.074;2023-11-21T15:25:13;34.53;;;13.07;;
17618;SDS011;8928;51.678;6.074;2023-11-21T15:28:01;39.03;;;14.37;;
17618;SDS011;8928;51.678;6.074;2023-11-21T15:33:25;41.80;;;14.17;;
17618;SDS011;8928;51.678;6.074;2023-11-21T15:36:13;36.53;;;13.60;;
17618;SDS011;8928;51.678;6.074;2023-11-21T15:39:02;34.50;;;12.43;;
17618;SDS011;8928;51.678;6.074;2023-11-21T15:41:49;32.97;;;12.40;;
17618;SDS011;8928;51.678;6.074;2023-11-21T15:44:36;35.37;;;12.93;;
17618;SDS011;8928;51.678;6.074;2023-11-21T15:47:23;30.77;;;11.20;;
17618;SDS011;8928;51.678;6.074;2023-11-21T15:50:10;31.27;;;11.87;;
17618;SDS011;8928;51.678;6.074;2023-11-21T15:52:59;32.97;;;12.47;;
17618;SDS011;8928;51.678;6.074;2023-11-21T15:55:49;30.17;;;11.37;;
17618;SDS011;8928;51.678;6.074;2023-11-21T15:58:37;32.83;;;12.37;;
17618;SDS011;8928;51.678;6.074;2023-11-21T16:09:06;34.07;;;14.13;;
17618;SDS011;8928;51.678;6.074;2023-11-21T16:12:03;44.17;;;17.30;;
17618;SDS011;8928;51.678;6.074;2023-11-21T16:14:51;45.13;;;19.27;;
17618;SDS011;8928;51.678;6.074;2023-11-21T16:17:38;42.47;;;19.83;;
17618;SDS011;8928;51.678;6.074;2023-11-21T16:20:27;46.87;;;21.00;;
17618;SDS011;8928;51.678;6.074;2023-11-21T16:23:14;44.13;;;19.40;;
17618;SDS011;8928;51.678;6.074;2023-11-21T16:26:01;41.37;;;19.20;;
17618;SDS011;8928;51.678;6.074;2023-11-21T16:28:51;38.37;;;18.47;;
17618;SDS011;8928;51.678;6.074;2023-11-21T16:31:38;38.30;;;17.20;;
17618;SDS011;8928;51.678;6.074;2023-11-21T16:34:26;35.47;;;17.47;;
17618;SDS011;8928;51.678;6.074;2023-11-21T16:37:13;34.00;;;17.20;;
17618;SDS011;8928;51.678;6.074;2023-11-21T16:40:01;34.20;;;16.63;;
17618;SDS011;8928;51.678;6.074;2023-11-21T16:42:52;29.57;;;16.33;;
17618;SDS011;8928;51.678;6.074;2023-11-21T16:45:40;31.67;;;16.17;;
17618;SDS011;8928;51.678;6.074;2023-11-21T16:48:33;27.63;;;14.83;;
17618;SDS011;8928;51.678;6.074;2023-11-21T16:51:20;30.67;;;15.13;;
17618;SDS011;8928;51.678;6.074;2023-11-21T16:54:07;28.93;;;15.30;;
17618;SDS011;8928;51.678;6.074;2023-11-21T16:56:55;26.20;;;14.57;;
17618;SDS011;8928;51.678;6.074;2023-11-21T16:59:42;27.00;;;14.60;;
17618;SDS011;8928;51.678;6.074;2023-11-21T17:02:31;27.60;;;15.20;;
17618;SDS011;8928;51.678;6.074;2023-11-21T17:05:18;30.53;;;16.13;;
17618;SDS011;8928;51.678;6.074;2023-11-21T17:08:05;24.57;;;13.20;;
17618;SDS011;8928;51.678;6.074;2023-11-21T17:10:56;23.00;;;12.43;;
17618;SDS011;8928;51.678;6.074;2023-11-21T17:13:44;23.83;;;12.30;;
17618;SDS011;8928;51.678;6.074;2023-11-21T17:16:31;23.57;;;12.50;;
17618;SDS011;8928;51.678;6.074;2023-11-21T17:19:19;22.70;;;12.50;;
17618;SDS011;8928;51.678;6.074;2023-11-21T17:22:06;24.33;;;11.93;;
17618;SDS011;8928;51.678;6.074;2023-11-21T17:24:53;22.20;;;12.07;;
17618;SDS011;8928;51.678;6.074;2023-11-21T17:27:40;21.47;;;12.00;;
17618;SDS011;8928;51.678;6.074;2023-11-21T17:30:27;22.50;;;11.70;;
17618;SDS011;8928;51.678;6.074;2023-11-21T17:33:13;21.47;;;11.63;;
17618;SDS011;8928;51.678;6.074;2023-11-21T17:36:02;21.67;;;11.90;;
17618;SDS011;8928;51.678;6.074;2023-11-21T17:38:50;22.60;;;11.77;;
17618;SDS011;8928;51.678;6.074;2023-11-21T17:44:14;22.17;;;12.00;;
17618;SDS011;8928;51.678;6.074;2023-11-21T17:47:02;20.47;;;11.90;;
17618;SDS011;8928;51.678;6.074;2023-11-21T17:49:49;23.57;;;11.70;;
17618;SDS011;8928;51.678;6.074;2023-11-21T17:55:20;23.73;;;13.10;;
17618;SDS011;8928;51.678;6.074;2023-11-21T17:58:07;27.60;;;13.63;;
17618;SDS011;8928;51.678;6.074;2023-11-21T18:00:56;25.60;;;13.17;;
17618;SDS011;8928;51.678;6.074;2023-11-21T18:03:43;26.43;;;13.60;;
17618;SDS011;8928;51.678;6.074;2023-11-21T18:06:30;25.47;;;12.80;;
17618;SDS011;8928;51.678;6.074;2023-11-21T18:09:17;26.33;;;13.03;;
17618;SDS011;8928;51.678;6.074;2023-11-21T18:14:41;26.07;;;13.50;;
17618;SDS011;8928;51.678;6.074;2023-11-21T18:17:28;28.13;;;13.37;;
17618;SDS011;8928;51.678;6.074;2023-11-21T18:20:15;27.30;;;13.67;;
17618;SDS011;8928;51.678;6.074;2023-11-21T18:23:02;27.63;;;14.00;;
17618;SDS011;8928;51.678;6.074;2023-11-21T18:25:50;27.97;;;14.47;;
17618;SDS011;8928;51.678;6.074;2023-11-21T18:28:37;31.63;;;15.43;;
17618;SDS011;8928;51.678;6.074;2023-11-21T18:31:26;27.47;;;14.60;;
17618;SDS011;8928;51.678;6.074;2023-11-21T18:34:13;27.73;;;14.80;;
17618;SDS011;8928;51.678;6.074;2023-11-21T18:37:00;31.07;;;14.77;;
17618;SDS011;8928;51.678;6.074;2023-11-21T18:39:47;27.30;;;14.97;;
17618;SDS011;8928;51.678;6.074;2023-11-21T18:47:47;32.50;;;15.93;;
17618;SDS011;8928;51.678;6.074;2023-11-21T18:50:34;29.70;;;15.27;;
17618;SDS011;8928;51.678;6.074;2023-11-21T18:53:13;33.40;;;16.43;;
17618;SDS011;8928;51.678;6.074;2023-11-21T18:56:00;30.50;;;16.57;;